createdAt,value
2018-04-18T00:00:38.576Z,5.27
2018-04-18T00:03:04.796Z,5.53
2018-04-18T00:05:30.997Z,5.47
2018-04-18T00:07:57.185Z,5.40
2018-04-18T00:10:23.372Z,5.43
2018-04-18T00:12:49.525Z,6.10
2018-04-18T00:15:15.687Z,5.50
2018-04-18T00:17:41.936Z,5.40
2018-04-18T00:20:08.860Z,5.20
2018-04-18T00:22:35.002Z,5.50
2018-04-18T00:25:01.959Z,5.00
2018-04-18T00:27:28.166Z,5.27
2018-04-18T00:29:55.083Z,4.90
2018-04-18T00:32:21.223Z,5.43
2018-04-18T00:34:47.446Z,4.50
2018-04-18T00:37:13.658Z,4.70
2018-04-18T00:39:39.860Z,4.93
2018-04-18T00:42:06.041Z,5.50
2018-04-18T00:44:32.268Z,5.40
2018-04-18T00:46:58.433Z,4.90
2018-04-18T00:49:24.630Z,5.70
2018-04-18T00:51:50.816Z,5.20
2018-04-18T00:54:16.994Z,5.50
2018-04-18T00:56:43.928Z,5.33
2018-04-18T00:59:10.880Z,4.60
2018-04-18T01:01:37.818Z,5.57
2018-04-18T01:04:04.741Z,5.20
2018-04-18T01:06:30.917Z,5.03
2018-04-18T01:08:57.117Z,4.90
2018-04-18T01:11:23.324Z,4.70
2018-04-18T01:13:49.511Z,5.37
2018-04-18T01:16:15.742Z,5.30
2018-04-18T01:18:41.970Z,5.10
2018-04-18T01:21:08.142Z,5.00
2018-04-18T01:23:34.326Z,5.87
2018-04-18T01:26:00.608Z,5.90
2018-04-18T01:28:26.807Z,5.57
2018-04-18T01:30:53.031Z,6.07
2018-04-18T01:33:19.238Z,6.33
2018-04-18T01:35:45.394Z,5.80
2018-04-18T01:38:12.324Z,5.60
2018-04-18T01:40:38.502Z,6.07
2018-04-18T01:43:05.412Z,6.33
2018-04-18T01:45:31.565Z,5.63
2018-04-18T01:47:57.797Z,5.83
2018-04-18T01:50:23.952Z,6.17
2018-04-18T01:52:50.152Z,5.87
2018-04-18T01:55:17.120Z,5.60
2018-04-18T01:57:43.282Z,5.77
2018-04-18T02:00:09.429Z,6.13
2018-04-18T02:02:35.623Z,5.67
2018-04-18T02:05:01.866Z,5.37
2018-04-18T02:07:28.072Z,5.73
2018-04-18T02:09:54.301Z,5.03
2018-04-18T02:12:20.466Z,5.53
2018-04-18T02:14:46.660Z,4.93
2018-04-18T02:17:12.844Z,5.37
2018-04-18T02:19:39.795Z,5.90
2018-04-18T02:22:06.716Z,6.83
2018-04-18T02:24:33.624Z,5.20
2018-04-18T02:26:59.795Z,5.60
2018-04-18T02:29:26.021Z,6.23
2018-04-18T02:31:53.020Z,5.57
2018-04-18T02:34:19.290Z,5.00
2018-04-18T02:36:45.494Z,5.70
2018-04-18T02:39:18.696Z,5.20
2018-04-18T02:41:44.919Z,5.60
2018-04-18T02:44:11.134Z,5.60
2018-04-18T02:46:37.354Z,5.43
2018-04-18T02:49:03.562Z,5.30
2018-04-18T02:51:29.790Z,6.20
2018-04-18T02:53:55.964Z,5.83
2018-04-18T02:56:22.161Z,5.60
2018-04-18T02:58:48.369Z,5.50
2018-04-18T03:01:14.557Z,5.87
2018-04-18T03:03:40.701Z,5.80
2018-04-18T03:06:06.865Z,5.90
2018-04-18T03:08:33.082Z,5.77
2018-04-18T03:10:59.252Z,7.17
2018-04-18T03:13:25.448Z,6.90
2018-04-18T03:15:51.658Z,6.60
2018-04-18T03:18:18.566Z,5.70
2018-04-18T03:20:45.493Z,6.10
2018-04-18T03:23:11.698Z,5.80
2018-04-18T03:25:37.836Z,6.10
2018-04-18T03:28:04.060Z,6.33
2018-04-18T03:30:30.217Z,5.90
2018-04-18T03:32:56.409Z,6.53
2018-04-18T03:35:22.612Z,6.37
2018-04-18T03:37:49.539Z,6.30
2018-04-18T03:40:16.492Z,6.37
2018-04-18T03:42:43.425Z,6.13
2018-04-18T03:45:10.329Z,5.43
2018-04-18T03:47:36.547Z,5.93
2018-04-18T03:50:02.747Z,6.40
2018-04-18T03:52:29.670Z,6.40
2018-04-18T03:54:55.913Z,6.37
2018-04-18T03:57:22.778Z,5.67
2018-04-18T03:59:49.829Z,6.20
2018-04-18T04:02:16.060Z,6.37
2018-04-18T04:04:42.279Z,6.10
2018-04-18T04:07:08.535Z,6.17
2018-04-18T04:09:34.777Z,5.50
2018-04-18T04:12:00.978Z,5.30
2018-04-18T04:14:27.158Z,5.33
2018-04-18T04:17:05.657Z,5.50
2018-04-18T04:19:44.182Z,5.40
2018-04-18T04:22:22.606Z,5.37
2018-04-18T04:24:49.646Z,5.40
2018-04-18T04:27:15.855Z,5.80
2018-04-18T04:29:42.014Z,5.10
2018-04-18T04:32:08.916Z,5.17
2018-04-18T04:34:35.107Z,5.43
2018-04-18T04:37:01.361Z,5.00
2018-04-18T04:39:27.525Z,5.40
2018-04-18T04:41:53.753Z,5.30
2018-04-18T04:44:19.958Z,5.40
2018-04-18T04:46:46.146Z,4.93
2018-04-18T04:49:12.353Z,5.60
2018-04-18T04:51:39.255Z,5.67
2018-04-18T04:54:05.497Z,6.33
2018-04-18T04:56:31.692Z,5.70
2018-04-18T04:58:57.879Z,5.60
2018-04-18T05:01:24.826Z,5.30
2018-04-18T05:03:51.730Z,5.50
2018-04-18T05:06:18.020Z,5.97
2018-04-18T05:08:44.204Z,7.53
2018-04-18T05:11:10.444Z,7.67
2018-04-18T05:13:37.366Z,8.00
2018-04-18T05:16:03.619Z,6.80
2018-04-18T05:18:30.621Z,6.30
2018-04-18T05:20:56.796Z,6.90
2018-04-18T05:23:23.002Z,6.33
2018-04-18T05:25:49.222Z,7.20
2018-04-18T05:28:15.420Z,5.77
2018-04-18T05:30:41.697Z,6.87
2018-04-18T05:33:07.856Z,5.90
2018-04-18T05:35:34.830Z,6.40
2018-04-18T05:38:01.083Z,6.40
2018-04-18T05:40:27.309Z,7.03
2018-04-18T05:42:53.551Z,6.83
2018-04-18T05:45:19.739Z,6.30
2018-04-18T05:47:45.882Z,6.40
2018-04-18T05:50:11.997Z,7.00
2018-04-18T05:52:38.139Z,6.80
2018-04-18T05:55:04.356Z,7.07
2018-04-18T05:57:30.515Z,7.20
2018-04-18T05:59:56.776Z,7.57
2018-04-18T06:02:23.010Z,6.70
2018-04-18T06:04:49.281Z,6.60
2018-04-18T06:07:15.474Z,7.37
2018-04-18T06:09:41.663Z,7.30
2018-04-18T06:12:07.857Z,7.30
2018-04-18T06:14:34.092Z,6.90
2018-04-18T06:17:00.278Z,7.17
2018-04-18T06:19:26.475Z,7.63
2018-04-18T06:21:52.718Z,6.87
2018-04-18T06:24:19.654Z,7.00
2018-04-18T06:26:46.638Z,7.50
2018-04-18T06:29:12.983Z,7.43
2018-04-18T06:31:39.142Z,7.40
2018-04-18T06:34:05.371Z,6.97
2018-04-18T06:36:31.537Z,7.80
2018-04-18T06:38:58.457Z,7.60
2018-04-18T06:41:25.604Z,7.13
2018-04-18T06:43:51.747Z,7.77
2018-04-18T06:46:18.691Z,7.53
2018-04-18T06:48:45.649Z,7.80
2018-04-18T06:51:11.858Z,7.87
2018-04-18T06:53:38.105Z,7.60
2018-04-18T06:56:04.476Z,7.67
2018-04-18T06:58:30.733Z,8.20
2018-04-18T07:00:56.963Z,7.57
2018-04-18T07:03:23.214Z,7.90
2018-04-18T07:05:49.409Z,8.00
2018-04-18T07:08:15.621Z,7.10
2018-04-18T07:10:41.798Z,6.73
2018-04-18T07:13:08.793Z,7.10
2018-04-18T07:15:34.974Z,7.40
2018-04-18T07:18:01.873Z,7.40
2018-04-18T07:20:28.028Z,7.80
2018-04-18T07:22:54.280Z,8.70
2018-04-18T07:25:20.483Z,8.00
2018-04-18T07:27:46.749Z,8.50
2018-04-18T07:30:13.026Z,7.43
2018-04-18T07:32:39.200Z,8.30
2018-04-18T07:35:05.471Z,7.50
2018-04-18T07:37:31.681Z,7.50
2018-04-18T07:39:57.895Z,8.00
2018-04-18T07:42:24.083Z,7.43
2018-04-18T07:44:50.271Z,8.43
2018-04-18T07:47:16.465Z,8.20
2018-04-18T07:49:42.672Z,7.83
2018-04-18T07:52:09.554Z,8.80
2018-04-18T07:54:35.697Z,7.67
2018-04-18T07:57:01.837Z,7.67
2018-04-18T07:59:28.012Z,7.37
2018-04-18T08:01:54.213Z,7.80
2018-04-18T08:04:21.110Z,7.70
2018-04-18T08:06:47.286Z,8.10
2018-04-18T08:09:14.183Z,7.77
2018-04-18T08:11:40.362Z,8.17
2018-04-18T08:14:07.289Z,7.70
2018-04-18T08:16:33.541Z,7.30
2018-04-18T08:19:00.478Z,6.77
2018-04-18T08:21:26.707Z,7.33
2018-04-18T08:23:53.621Z,6.00
2018-04-18T08:26:19.824Z,6.00
2018-04-18T08:28:46.048Z,5.80
2018-04-18T08:31:12.274Z,5.93
2018-04-18T08:33:38.421Z,5.87
2018-04-18T08:36:04.614Z,5.77
2018-04-18T08:38:30.822Z,6.20
2018-04-18T08:40:57.691Z,5.80
2018-04-18T08:43:23.922Z,5.50
2018-04-18T08:45:50.152Z,6.10
2018-04-18T08:48:16.368Z,5.47
2018-04-18T08:50:42.573Z,6.57
2018-04-18T08:53:09.559Z,5.37
2018-04-18T08:55:35.756Z,6.27
2018-04-18T08:58:02.710Z,5.27
2018-04-18T09:00:29.662Z,5.70
2018-04-18T09:02:55.945Z,5.80
2018-04-18T09:05:22.150Z,6.00
2018-04-18T09:07:48.353Z,6.53
2018-04-18T09:10:14.573Z,6.40
2018-04-18T09:12:40.812Z,6.50
2018-04-18T09:15:07.016Z,5.40
2018-04-18T09:17:33.952Z,5.40
2018-04-18T09:20:00.931Z,4.90
2018-04-18T09:22:27.147Z,5.20
2018-04-18T09:24:53.342Z,5.17
2018-04-18T09:27:19.458Z,4.77
2018-04-18T09:29:45.627Z,4.77
2018-04-18T09:32:11.821Z,3.87
2018-04-18T09:34:38.077Z,4.60
2018-04-18T09:37:04.283Z,3.93
2018-04-18T09:39:30.487Z,3.87
2018-04-18T09:41:56.706Z,3.00
2018-04-18T09:44:22.935Z,3.50
2018-04-18T09:46:49.104Z,3.70
2018-04-18T09:49:15.993Z,3.73
2018-04-18T09:51:42.200Z,3.43
2018-04-18T09:54:08.373Z,3.90
2018-04-18T09:56:34.541Z,3.77
2018-04-18T09:59:01.443Z,4.10
2018-04-18T10:01:33.832Z,4.20
2018-04-18T10:04:06.986Z,4.47
2018-04-18T10:06:33.212Z,3.70
2018-04-18T10:08:59.457Z,3.97
2018-04-18T10:11:25.649Z,3.80
2018-04-18T10:13:51.901Z,3.13
2018-04-18T10:16:18.134Z,3.10
2018-04-18T10:18:45.055Z,3.10
2018-04-18T10:21:11.280Z,3.93
2018-04-18T10:23:37.512Z,3.93
2018-04-18T10:26:03.746Z,3.77
2018-04-18T10:28:29.900Z,3.10
2018-04-18T10:30:56.111Z,3.40
2018-04-18T10:33:22.331Z,3.43
2018-04-18T10:35:48.515Z,3.50
2018-04-18T10:38:15.454Z,3.17
2018-04-18T10:40:42.430Z,2.90
2018-04-18T10:43:08.674Z,2.83
2018-04-18T10:45:34.853Z,2.77
2018-04-18T10:48:01.069Z,2.60
2018-04-18T10:50:27.257Z,2.80
2018-04-18T10:52:53.424Z,2.40
2018-04-18T10:55:19.620Z,2.60
2018-04-18T10:57:45.812Z,2.90
2018-04-18T11:00:12.051Z,2.70
2018-04-18T11:02:38.236Z,2.80
2018-04-18T11:05:04.468Z,2.50
2018-04-18T11:07:30.695Z,2.60
2018-04-18T11:09:56.862Z,2.63
2018-04-18T11:12:23.032Z,2.97
2018-04-18T11:14:49.279Z,2.53
2018-04-18T11:17:15.564Z,2.90
2018-04-18T11:19:41.769Z,3.07
2018-04-18T11:22:07.965Z,2.60
2018-04-18T11:24:34.181Z,2.20
2018-04-18T11:27:01.088Z,3.13
2018-04-18T11:29:28.029Z,3.10
2018-04-18T11:31:54.242Z,2.30
2018-04-18T11:34:20.385Z,2.80
2018-04-18T11:36:46.561Z,2.63
2018-04-18T11:39:12.745Z,2.97
2018-04-18T11:41:38.965Z,2.27
2018-04-18T11:44:06.126Z,2.70
2018-04-18T11:46:32.446Z,2.83
2018-04-18T11:48:58.665Z,2.40
2018-04-18T11:51:24.887Z,2.20
2018-04-18T11:53:51.844Z,2.80
2018-04-18T11:56:18.051Z,3.23
2018-04-18T11:58:44.927Z,3.10
2018-04-18T12:01:11.113Z,2.50
2018-04-18T12:03:38.012Z,2.43
2018-04-18T12:06:04.910Z,2.27
2018-04-18T12:08:31.972Z,2.90
2018-04-18T12:10:58.281Z,2.17
2018-04-18T12:13:25.171Z,2.67
2018-04-18T12:15:51.380Z,2.73
2018-04-18T12:18:17.655Z,2.67
2018-04-18T12:20:43.983Z,2.50
2018-04-18T12:23:10.112Z,2.80
2018-04-18T12:25:36.297Z,2.63
2018-04-18T12:28:02.526Z,2.83
2018-04-18T12:30:28.758Z,2.50
2018-04-18T12:32:54.908Z,2.60
2018-04-18T12:35:21.087Z,2.43
2018-04-18T12:37:48.026Z,2.20
2018-04-18T12:40:14.937Z,3.03
2018-04-18T12:42:41.071Z,2.20
2018-04-18T12:45:07.251Z,1.97
2018-04-18T12:47:33.478Z,2.37
2018-04-18T12:49:59.713Z,2.50
2018-04-18T12:52:25.894Z,2.73
2018-04-18T12:54:52.066Z,2.30
2018-04-18T12:57:18.279Z,2.13
2018-04-18T12:59:44.486Z,2.37
2018-04-18T13:02:11.361Z,2.50
2018-04-18T13:04:37.544Z,2.30
2018-04-18T13:07:04.463Z,2.80
2018-04-18T13:09:30.654Z,2.60
2018-04-18T13:11:56.805Z,2.50
2018-04-18T13:14:22.973Z,2.30
2018-04-18T13:16:49.983Z,2.17
2018-04-18T13:19:16.174Z,2.27
2018-04-18T13:21:42.336Z,2.20
2018-04-18T13:24:08.543Z,2.43
2018-04-18T13:26:34.794Z,2.53
2018-04-18T13:29:00.972Z,2.90
2018-04-18T13:31:27.893Z,2.70
2018-04-18T13:33:54.056Z,2.40
2018-04-18T13:36:20.284Z,2.50
2018-04-18T13:38:46.520Z,2.10
2018-04-18T13:41:12.666Z,2.10
2018-04-18T13:43:38.893Z,2.47
2018-04-18T13:46:05.133Z,2.37
2018-04-18T13:48:31.353Z,2.60
2018-04-18T13:50:57.585Z,2.90
2018-04-18T13:53:24.525Z,2.30
2018-04-18T13:55:50.829Z,2.37
2018-04-18T13:58:17.039Z,2.93
2018-04-18T14:00:43.941Z,2.73
2018-04-18T14:03:10.207Z,2.97
2018-04-18T14:05:37.127Z,2.97
2018-04-18T14:08:03.296Z,2.93
2018-04-18T14:10:30.229Z,2.70
2018-04-18T14:12:57.204Z,3.07
2018-04-18T14:15:23.406Z,2.40
2018-04-18T14:17:50.347Z,2.73
2018-04-18T14:20:17.304Z,3.40
2018-04-18T14:22:43.453Z,2.63
2018-04-18T14:25:09.630Z,3.23
2018-04-18T14:27:36.601Z,4.07
2018-04-18T14:30:02.818Z,2.50
2018-04-18T14:32:29.787Z,3.10
2018-04-18T14:34:55.997Z,3.47
2018-04-18T14:37:22.860Z,3.17
2018-04-18T14:39:49.067Z,2.80
2018-04-18T14:42:16.013Z,2.80
2018-04-18T14:44:42.976Z,2.80
2018-04-18T14:47:09.146Z,3.07
2018-04-18T14:49:35.344Z,3.50
2018-04-18T14:52:01.605Z,3.23
2018-04-18T14:54:27.837Z,3.10
2018-04-18T14:56:54.054Z,3.97
2018-04-18T14:59:20.229Z,3.70
2018-04-18T15:01:46.481Z,3.50
2018-04-18T15:04:12.704Z,2.73
2018-04-18T15:06:38.949Z,3.30
2018-04-18T15:09:05.166Z,3.37
2018-04-18T15:11:31.344Z,3.70
2018-04-18T15:13:57.541Z,3.30
2018-04-18T15:16:23.763Z,3.17
2018-04-18T15:18:49.919Z,3.17
2018-04-18T15:21:16.181Z,2.73
2018-04-18T15:23:42.346Z,3.93
2018-04-18T15:26:08.515Z,3.00
2018-04-18T15:28:34.796Z,2.60
2018-04-18T15:31:00.897Z,3.07
2018-04-18T15:33:27.103Z,2.90
2018-04-18T15:35:54.090Z,2.80
2018-04-18T15:38:20.259Z,3.10
2018-04-18T15:40:46.418Z,3.03
2018-04-18T15:43:13.349Z,3.17
2018-04-18T15:45:40.350Z,3.27
2018-04-18T15:48:06.548Z,3.13
2018-04-18T15:50:32.805Z,3.50
2018-04-18T15:52:58.940Z,3.50
2018-04-18T15:55:25.177Z,3.23
2018-04-18T15:57:51.385Z,3.63
2018-04-18T16:00:17.596Z,2.80
2018-04-18T16:02:43.741Z,3.27
2018-04-18T16:05:09.942Z,3.27
2018-04-18T16:07:36.107Z,3.20
2018-04-18T16:10:02.341Z,4.90
2018-04-18T16:12:35.516Z,3.47
2018-04-18T16:15:01.703Z,3.60
2018-04-18T16:17:27.914Z,3.43
2018-04-18T16:19:54.866Z,3.40
2018-04-18T16:22:21.864Z,2.60
2018-04-18T16:24:48.018Z,3.23
2018-04-18T16:27:14.160Z,3.10
2018-04-18T16:29:41.986Z,2.73
2018-04-18T16:32:08.172Z,2.70
2018-04-18T16:34:35.209Z,2.80
2018-04-18T16:37:02.229Z,2.90
2018-04-18T16:39:28.455Z,3.27
2018-04-18T16:41:54.656Z,3.40
2018-04-18T16:44:20.950Z,2.90
2018-04-18T16:46:47.924Z,2.87
2018-04-18T16:49:14.116Z,3.77
2018-04-18T16:51:41.139Z,2.80
2018-04-18T16:54:07.353Z,2.73
2018-04-18T16:56:33.527Z,3.10
2018-04-18T16:59:00.442Z,3.33
2018-04-18T17:01:26.687Z,3.33
2018-04-18T17:03:53.615Z,3.37
2018-04-18T17:06:19.790Z,2.93
2018-04-18T17:08:46.023Z,3.77
2018-04-18T17:11:12.201Z,3.60
2018-04-18T17:13:39.153Z,3.30
2018-04-18T17:16:06.083Z,3.30
2018-04-18T17:18:32.255Z,3.20
2018-04-18T17:20:58.449Z,3.60
2018-04-18T17:23:24.678Z,3.43
2018-04-18T17:25:51.673Z,3.20
2018-04-18T17:28:17.918Z,2.93
2018-04-18T17:30:44.119Z,2.90
2018-04-18T17:33:10.370Z,3.60
2018-04-18T17:35:36.561Z,3.30
2018-04-18T17:38:03.478Z,2.73
2018-04-18T17:40:29.651Z,2.87
2018-04-18T17:42:55.858Z,3.00
2018-04-18T17:45:22.767Z,2.90
2018-04-18T17:47:48.944Z,2.87
2018-04-18T17:50:15.177Z,2.83
2018-04-18T17:52:41.379Z,2.97
2018-04-18T17:55:07.561Z,3.00
2018-04-18T17:57:33.743Z,3.80
2018-04-18T18:00:00.712Z,4.10
2018-04-18T18:02:26.928Z,4.13
2018-04-18T18:04:53.161Z,4.40
2018-04-18T18:07:19.518Z,4.30
2018-04-18T18:09:45.667Z,4.60
2018-04-18T18:12:11.923Z,3.70
2018-04-18T18:14:38.776Z,3.77
2018-04-18T18:17:04.970Z,3.50
2018-04-18T18:19:31.906Z,2.87
2018-04-18T18:21:58.232Z,2.93
2018-04-18T18:24:24.459Z,3.23
2018-04-18T18:26:50.683Z,3.27
2018-04-18T18:29:16.972Z,3.17
2018-04-18T18:31:43.227Z,3.00
2018-04-18T18:34:09.398Z,3.17
2018-04-18T18:36:36.345Z,3.07
2018-04-18T18:39:03.355Z,3.67
2018-04-18T18:41:29.556Z,3.03
2018-04-18T18:43:55.789Z,3.30
2018-04-18T18:46:22.033Z,3.07
2018-04-18T18:48:48.205Z,3.33
2018-04-18T18:51:15.206Z,3.40
2018-04-18T18:53:41.484Z,3.53
2018-04-18T18:56:09.087Z,3.17
2018-04-18T18:58:35.460Z,5.50
2018-04-18T19:01:01.986Z,3.73
2018-04-18T19:03:29.046Z,3.43
2018-04-18T19:05:56.193Z,3.37
2018-04-18T19:08:23.159Z,3.60
2018-04-18T19:10:50.134Z,3.87
2018-04-18T19:13:16.402Z,3.80
2018-04-18T19:15:42.673Z,4.97
2018-04-18T19:18:08.969Z,4.00
2018-04-18T19:20:35.225Z,4.50
2018-04-18T19:23:02.219Z,4.00
2018-04-18T19:25:28.439Z,4.23
2018-04-18T19:27:54.665Z,3.70
2018-04-18T19:30:20.884Z,3.67
2018-04-18T19:32:47.079Z,3.60
2018-04-18T19:35:14.098Z,4.93
2018-04-18T19:37:40.328Z,3.90
2018-04-18T19:40:06.484Z,4.40
2018-04-18T19:42:33.485Z,5.10
2018-04-18T19:45:00.441Z,4.70
2018-04-18T19:47:26.729Z,4.10
2018-04-18T19:49:52.967Z,4.70
2018-04-18T19:52:19.237Z,3.70
2018-04-18T19:54:45.492Z,4.27
2018-04-18T19:57:12.538Z,4.37
2018-04-18T19:59:39.426Z,4.13
2018-04-18T20:02:05.732Z,4.40
2018-04-18T20:04:32.064Z,4.10
2018-04-18T20:06:58.303Z,4.80
2018-04-18T20:09:24.582Z,5.00
2018-04-18T20:11:50.785Z,5.00
2018-04-18T20:14:17.696Z,4.80
2018-04-18T20:16:44.131Z,5.20
2018-04-18T20:19:10.658Z,5.27
2018-04-18T20:21:37.222Z,5.10
2018-04-18T20:24:03.458Z,5.00
2018-04-18T20:26:32.012Z,4.80
2018-04-18T20:28:58.422Z,5.93
2018-04-18T20:31:24.873Z,4.90
2018-04-18T20:33:51.182Z,5.43
2018-04-18T20:36:17.591Z,5.20
2018-04-18T20:38:43.880Z,5.00
2018-04-18T20:41:10.252Z,4.80
2018-04-18T20:43:36.538Z,5.30
2018-04-18T20:46:02.805Z,5.40
2018-04-18T20:48:29.263Z,5.70
2018-04-18T20:50:55.621Z,5.50
2018-04-18T20:53:21.885Z,5.37
2018-04-18T20:55:48.092Z,5.70
2018-04-18T20:58:14.289Z,6.57
2018-04-18T21:00:41.229Z,5.40
2018-04-18T21:03:07.490Z,5.60
2018-04-18T21:05:33.731Z,6.10
2018-04-18T21:07:59.995Z,5.17
2018-04-18T21:10:26.220Z,5.60
2018-04-18T21:12:52.734Z,5.60
2018-04-18T21:15:18.900Z,5.80
2018-04-18T21:17:45.852Z,5.83
2018-04-18T21:20:12.841Z,6.10
2018-04-18T21:22:39.067Z,6.77
2018-04-18T21:25:05.306Z,6.80
2018-04-18T21:27:31.513Z,7.23
2018-04-18T21:29:57.755Z,5.30
2018-04-18T21:32:23.985Z,6.13
2018-04-18T21:34:50.114Z,7.03
2018-04-18T21:37:16.344Z,6.70
2018-04-18T21:39:42.600Z,6.20
2018-04-18T21:42:08.826Z,7.07
2018-04-18T21:44:35.048Z,6.80
2018-04-18T21:47:01.227Z,7.67
2018-04-18T21:49:27.465Z,7.27
2018-04-18T21:51:53.651Z,7.50
2018-04-18T21:54:20.606Z,8.20
2018-04-18T21:56:47.498Z,7.67
2018-04-18T21:59:13.653Z,8.10
2018-04-18T22:01:39.826Z,7.80
2018-04-18T22:04:05.987Z,7.30
2018-04-18T22:06:32.204Z,7.10
2018-04-18T22:08:58.418Z,6.93
2018-04-18T22:11:24.682Z,7.90
2018-04-18T22:13:50.904Z,6.70
2018-04-18T22:16:17.128Z,6.90
2018-04-18T22:18:43.370Z,6.70
2018-04-18T22:21:09.618Z,5.70
2018-04-18T22:23:36.636Z,6.07
2018-04-18T22:26:02.832Z,6.97
2018-04-18T22:28:29.065Z,6.50
2018-04-18T22:30:55.268Z,7.00
2018-04-18T22:33:22.193Z,7.00
2018-04-18T22:35:48.438Z,7.20
2018-04-18T22:38:21.748Z,6.90
2018-04-18T22:40:47.946Z,6.53
2018-04-18T22:43:14.903Z,6.63
2018-04-18T22:45:41.159Z,7.03
2018-04-18T22:48:07.336Z,6.63
2018-04-18T22:50:33.498Z,7.30
2018-04-18T22:52:59.651Z,6.60
2018-04-18T22:55:25.877Z,7.10
2018-04-18T22:57:52.054Z,7.20
2018-04-18T23:00:20.146Z,6.93
2018-04-18T23:02:47.077Z,6.77
2018-04-18T23:05:14.090Z,7.00
2018-04-18T23:07:40.265Z,6.43
2018-04-18T23:10:07.207Z,5.97
2018-04-18T23:12:34.194Z,6.47
2018-04-18T23:15:00.435Z,6.90
2018-04-18T23:17:26.663Z,7.80
2018-04-18T23:19:52.888Z,6.30
2018-04-18T23:22:31.588Z,6.50
2018-04-18T23:24:57.786Z,6.93
2018-04-18T23:27:24.764Z,6.43
2018-04-18T23:29:50.987Z,6.00
2018-04-18T23:32:17.181Z,6.20
2018-04-18T23:34:44.150Z,6.23
2018-04-18T23:37:10.392Z,5.60
2018-04-18T23:39:36.682Z,5.97
2018-04-18T23:42:03.607Z,5.90
2018-04-18T23:44:29.899Z,6.97
2018-04-18T23:46:56.142Z,6.27
2018-04-18T23:49:22.336Z,6.20
2018-04-18T23:51:48.569Z,6.63
2018-04-18T23:54:14.746Z,6.40
2018-04-18T23:56:40.978Z,5.80
2018-04-18T23:59:07.151Z,6.40
